createdAt,value
2023-08-07T00:00:10.318Z,16.09
2023-08-07T00:02:38.482Z,16.10
2023-08-07T00:05:07.385Z,16.07
2023-08-07T00:07:35.385Z,16.05
2023-08-07T00:10:04.387Z,16.04
2023-08-07T00:12:32.390Z,16.01
2023-08-07T00:15:02.668Z,15.95
2023-08-07T00:17:30.829Z,15.85
2023-08-07T00:19:58.760Z,15.93
2023-08-07T00:22:27.267Z,16.00
2023-08-07T00:24:55.183Z,16.05
2023-08-07T00:27:23.165Z,15.97
2023-08-07T00:29:52.886Z,16.08
2023-08-07T00:32:22.220Z,16.04
2023-08-07T00:34:50.159Z,16.08
2023-08-07T00:37:18.565Z,16.07
2023-08-07T00:39:46.580Z,16.13
2023-08-07T00:42:14.656Z,16.17
2023-08-07T00:44:42.600Z,16.18
2023-08-07T00:47:10.742Z,16.07
2023-08-07T00:49:40.072Z,16.20
2023-08-07T00:52:08.867Z,16.25
2023-08-07T00:54:36.880Z,16.31
2023-08-07T00:57:12.920Z,16.34
2023-08-07T00:59:41.836Z,16.37
2023-08-07T01:02:10.635Z,16.42
2023-08-07T01:04:40.296Z,16.47
2023-08-07T01:07:09.914Z,16.47
2023-08-07T01:09:38.356Z,16.48
2023-08-07T01:12:15.612Z,16.47
2023-08-07T01:14:53.209Z,16.49
2023-08-07T01:17:23.851Z,16.51
2023-08-07T01:19:54.096Z,16.52
2023-08-07T01:22:23.416Z,16.48
2023-08-07T01:24:53.040Z,16.48
2023-08-07T01:27:37.635Z,16.44
2023-08-07T01:30:14.576Z,16.36
2023-08-07T01:32:51.699Z,16.35
2023-08-07T01:35:26.385Z,16.41
2023-08-07T01:37:57.712Z,16.42
2023-08-07T01:40:26.640Z,16.42
2023-08-07T01:42:55.186Z,16.41
2023-08-07T01:45:26.765Z,16.38
2023-08-07T01:47:55.117Z,16.36
2023-08-07T01:50:24.303Z,16.35
2023-08-07T01:52:52.496Z,16.23
2023-08-07T01:55:23.549Z,16.17
2023-08-07T01:57:54.762Z,16.10
2023-08-07T02:00:23.061Z,16.08
2023-08-07T02:02:51.100Z,16.15
2023-08-07T02:05:20.241Z,16.16
2023-08-07T02:07:48.159Z,16.10
2023-08-07T02:10:16.076Z,16.03
2023-08-07T02:12:45.552Z,15.96
2023-08-07T02:15:13.718Z,15.92
2023-08-07T02:17:42.670Z,15.89
2023-08-07T02:20:12.447Z,15.88
2023-08-07T02:22:40.484Z,15.79
2023-08-07T02:25:09.171Z,15.87
2023-08-07T02:27:39.005Z,15.87
2023-08-07T02:30:09.713Z,15.89
2023-08-07T02:32:37.682Z,15.86
2023-08-07T02:35:06.458Z,15.86
2023-08-07T02:37:34.405Z,15.88
2023-08-07T02:40:02.332Z,15.86
2023-08-07T02:42:30.293Z,15.89
2023-08-07T02:44:58.833Z,15.90
2023-08-07T02:47:28.167Z,15.90
2023-08-07T02:49:56.147Z,15.88
2023-08-07T02:52:24.288Z,15.94
2023-08-07T02:54:52.249Z,15.99
2023-08-07T02:57:20.146Z,16.00
2023-08-07T02:59:48.190Z,16.01
2023-08-07T03:02:16.195Z,16.01
2023-08-07T03:04:45.631Z,16.01
2023-08-07T03:07:13.503Z,16.01
2023-08-07T03:09:41.352Z,16.00
2023-08-07T03:12:10.025Z,15.98
2023-08-07T03:14:38.000Z,15.96
2023-08-07T03:17:06.459Z,15.97
2023-08-07T03:19:34.332Z,16.01
2023-08-07T03:22:03.631Z,16.03
2023-08-07T03:24:31.634Z,16.06
2023-08-07T03:26:59.597Z,16.09
2023-08-07T03:29:27.676Z,16.09
2023-08-07T03:31:56.022Z,16.12
2023-08-07T03:34:24.057Z,16.13
2023-08-07T03:36:51.926Z,16.08
2023-08-07T03:39:21.230Z,16.05
2023-08-07T03:41:49.182Z,16.04
2023-08-07T03:44:19.080Z,16.03
2023-08-07T03:46:47.729Z,15.99
2023-08-07T03:49:16.359Z,15.98
2023-08-07T03:51:44.347Z,16.02
2023-08-07T03:54:12.233Z,15.98
2023-08-07T03:56:41.522Z,15.95
2023-08-07T03:59:09.845Z,15.89
2023-08-07T04:01:37.965Z,15.91
2023-08-07T04:04:06.353Z,15.93
2023-08-07T04:06:34.366Z,15.86
2023-08-07T04:09:04.401Z,15.91
2023-08-07T04:11:34.552Z,15.85
2023-08-07T04:14:05.004Z,15.83
2023-08-07T04:16:34.262Z,15.81
2023-08-07T04:19:02.161Z,15.88
2023-08-07T04:21:30.033Z,15.93
2023-08-07T04:23:57.971Z,15.99
2023-08-07T04:26:25.906Z,16.00
2023-08-07T04:28:53.791Z,16.02
2023-08-07T04:31:23.872Z,16.05
2023-08-07T04:33:51.868Z,16.09
2023-08-07T04:36:22.156Z,16.13
2023-08-07T04:38:50.095Z,16.13
2023-08-07T04:41:18.394Z,16.07
2023-08-07T04:43:46.584Z,16.07
2023-08-07T04:46:14.582Z,16.08
2023-08-07T04:48:43.882Z,16.05
2023-08-07T04:51:11.779Z,16.12
2023-08-07T04:53:39.689Z,16.20
2023-08-07T04:56:07.857Z,16.26
2023-08-07T04:58:35.813Z,16.31
2023-08-07T05:01:04.374Z,16.41
2023-08-07T05:03:32.861Z,16.52
2023-08-07T05:06:02.616Z,16.56
2023-08-07T05:08:30.589Z,16.57
2023-08-07T05:10:58.421Z,16.61
2023-08-07T05:13:26.349Z,16.66
2023-08-07T05:15:54.249Z,16.73
2023-08-07T05:18:22.302Z,16.72
2023-08-07T05:20:50.138Z,16.65
2023-08-07T05:23:19.455Z,16.58
2023-08-07T05:25:49.885Z,16.64
2023-08-07T05:28:17.996Z,16.61
2023-08-07T05:30:46.009Z,16.56
2023-08-07T05:33:16.626Z,16.50
2023-08-07T05:35:44.721Z,16.45
2023-08-07T05:38:12.542Z,16.42
2023-08-07T05:40:42.043Z,16.38
2023-08-07T05:43:10.757Z,16.42
2023-08-07T05:45:38.738Z,16.36
2023-08-07T05:48:07.394Z,16.64
2023-08-07T05:50:35.274Z,16.67
2023-08-07T05:53:03.326Z,16.72
2023-08-07T05:55:31.271Z,16.73
2023-08-07T05:58:02.001Z,16.69
2023-08-07T06:00:30.004Z,16.62
2023-08-07T06:02:58.199Z,16.65
2023-08-07T06:05:28.136Z,16.64
2023-08-07T06:07:56.643Z,16.84
2023-08-07T06:10:24.593Z,16.78
2023-08-07T06:12:52.466Z,16.87
2023-08-07T06:15:22.218Z,16.93
2023-08-07T06:17:52.319Z,16.97
2023-08-07T06:20:21.613Z,16.90
2023-08-07T06:22:49.608Z,17.06
2023-08-07T06:25:17.602Z,17.05
2023-08-07T06:27:45.969Z,17.02
2023-08-07T06:30:15.178Z,17.01
2023-08-07T06:32:44.635Z,17.00
2023-08-07T06:35:12.666Z,16.96
2023-08-07T06:37:40.968Z,16.92
2023-08-07T06:40:10.945Z,16.87
2023-08-07T06:42:39.020Z,16.74
2023-08-07T06:45:08.310Z,16.74
2023-08-07T06:47:36.337Z,16.66
2023-08-07T06:50:06.231Z,16.62
2023-08-07T06:52:34.116Z,16.56
2023-08-07T06:55:02.122Z,16.49
2023-08-07T06:57:30.280Z,16.48
2023-08-07T06:59:58.267Z,16.48
2023-08-07T07:02:26.238Z,16.51
2023-08-07T07:04:54.196Z,16.50
2023-08-07T07:07:23.453Z,16.47
2023-08-07T07:09:51.369Z,16.39
2023-08-07T07:12:19.375Z,16.33
2023-08-07T07:14:47.375Z,16.35
2023-08-07T07:17:15.331Z,16.33
2023-08-07T07:19:43.236Z,16.30
2023-08-07T07:22:11.312Z,16.19
2023-08-07T07:24:40.752Z,16.14
2023-08-07T07:27:09.051Z,16.14
2023-08-07T07:29:36.966Z,16.13
2023-08-07T07:32:05.250Z,16.16
2023-08-07T07:34:34.273Z,16.19
2023-08-07T07:37:02.231Z,16.14
2023-08-07T07:39:30.092Z,16.14
2023-08-07T07:41:59.539Z,16.09
2023-08-07T07:44:27.413Z,16.04
2023-08-07T07:46:55.666Z,16.09
2023-08-07T07:49:23.826Z,16.03
2023-08-07T07:51:51.721Z,15.98
2023-08-07T07:54:19.555Z,16.03
2023-08-07T07:56:47.437Z,16.12
2023-08-07T07:59:17.236Z,16.25
2023-08-07T08:01:45.243Z,16.28
2023-08-07T08:04:13.315Z,16.25
2023-08-07T08:06:42.306Z,16.24
2023-08-07T08:09:11.086Z,16.23
2023-08-07T08:11:39.394Z,16.24
2023-08-07T08:14:07.376Z,16.24
2023-08-07T08:16:36.891Z,16.18
2023-08-07T08:19:05.036Z,16.12
2023-08-07T08:21:33.195Z,16.04
2023-08-07T08:24:01.345Z,16.13
2023-08-07T08:26:29.309Z,16.18
2023-08-07T08:28:57.617Z,16.20
2023-08-07T08:31:25.710Z,16.27
2023-08-07T08:33:55.049Z,16.24
2023-08-07T08:36:22.953Z,16.33
2023-08-07T08:38:52.771Z,16.36
2023-08-07T08:41:21.921Z,16.31
2023-08-07T08:43:53.596Z,16.10
2023-08-07T08:46:22.339Z,15.97
2023-08-07T08:48:53.849Z,15.90
2023-08-07T08:51:23.716Z,15.93
2023-08-07T08:53:53.338Z,15.97
2023-08-07T08:56:23.489Z,15.97
2023-08-07T08:58:53.044Z,15.90
2023-08-07T09:01:23.032Z,15.89
2023-08-07T09:03:53.356Z,15.91
2023-08-07T09:06:23.040Z,15.93
2023-08-07T09:08:51.889Z,15.95
2023-08-07T09:11:21.330Z,15.97
2023-08-07T09:13:50.812Z,16.02
2023-08-07T09:16:19.591Z,16.04
2023-08-07T09:18:48.194Z,16.09
2023-08-07T09:21:17.744Z,16.20
2023-08-07T09:23:47.113Z,16.24
2023-08-07T09:26:15.650Z,16.28
2023-08-07T09:28:43.606Z,16.25
2023-08-07T09:31:18.974Z,16.36
2023-08-07T09:33:50.138Z,16.52
2023-08-07T09:36:19.133Z,16.51
2023-08-07T09:38:52.390Z,16.39
2023-08-07T09:41:21.357Z,16.23
2023-08-07T09:43:49.373Z,16.10
2023-08-07T09:46:20.027Z,15.91
2023-08-07T09:48:48.072Z,15.88
2023-08-07T09:51:16.050Z,15.75
2023-08-07T09:53:44.088Z,15.86
2023-08-07T09:56:16.222Z,15.90
2023-08-07T09:58:50.078Z,15.94
2023-08-07T10:01:18.943Z,15.94
2023-08-07T10:03:47.370Z,16.01
2023-08-07T10:06:16.343Z,15.92
2023-08-07T10:08:46.532Z,15.93
2023-08-07T10:11:19.340Z,15.91
2023-08-07T10:13:47.618Z,15.95
2023-08-07T10:16:16.130Z,15.98
2023-08-07T10:18:44.159Z,15.98
2023-08-07T10:21:13.005Z,15.80
2023-08-07T10:23:41.790Z,15.82
2023-08-07T10:26:13.211Z,15.69
2023-08-07T10:28:44.129Z,15.57
2023-08-07T10:31:15.336Z,15.58
2023-08-07T10:33:44.138Z,15.54
2023-08-07T10:36:12.529Z,15.55
2023-08-07T10:38:40.531Z,15.56
2023-08-07T10:41:09.886Z,15.58
2023-08-07T10:43:44.039Z,15.61
2023-08-07T10:46:13.718Z,15.64
2023-08-07T10:48:43.262Z,15.67
2023-08-07T10:51:14.568Z,15.71
2023-08-07T10:53:45.030Z,15.72
2023-08-07T10:56:17.179Z,15.69
2023-08-07T10:58:52.001Z,15.82
2023-08-07T11:01:22.581Z,15.89
2023-08-07T11:03:52.731Z,15.87
2023-08-07T11:06:24.513Z,15.84
2023-08-07T11:08:52.971Z,15.81
2023-08-07T11:11:21.091Z,15.83
2023-08-07T11:13:50.366Z,15.88
2023-08-07T11:16:22.053Z,15.91
2023-08-07T11:18:51.390Z,15.89
2023-08-07T11:21:20.772Z,15.82
2023-08-07T11:23:48.733Z,15.80
2023-08-07T11:26:16.855Z,15.65
2023-08-07T11:28:45.257Z,15.54
2023-08-07T11:31:14.817Z,15.62
2023-08-07T11:33:43.224Z,15.68
2023-08-07T11:36:14.906Z,15.71
2023-08-07T11:38:45.133Z,15.78
2023-08-07T11:41:14.285Z,15.79
2023-08-07T11:43:42.769Z,15.84
2023-08-07T11:46:12.055Z,15.89
2023-08-07T11:48:42.834Z,15.83
2023-08-07T11:51:11.219Z,15.76
2023-08-07T11:53:40.725Z,15.72
2023-08-07T11:56:11.692Z,15.75
2023-08-07T11:58:41.491Z,15.68
2023-08-07T12:01:12.384Z,15.78
2023-08-07T12:03:44.632Z,15.85
2023-08-07T12:06:12.652Z,15.82
2023-08-07T12:08:42.296Z,15.87
2023-08-07T12:11:11.685Z,15.88
2023-08-07T12:13:40.933Z,15.85
2023-08-07T12:16:09.597Z,15.77
2023-08-07T12:18:39.723Z,15.74
2023-08-07T12:21:09.830Z,15.72
2023-08-07T12:23:38.753Z,15.75
2023-08-07T12:26:08.431Z,15.71
2023-08-07T12:28:37.051Z,15.89
2023-08-07T12:31:05.553Z,15.93
2023-08-07T12:33:33.559Z,15.94
2023-08-07T12:36:02.760Z,15.96
2023-08-07T12:38:32.143Z,15.92
2023-08-07T12:41:00.369Z,15.82
2023-08-07T12:43:28.643Z,15.67
2023-08-07T12:46:31.750Z,15.76
2023-08-07T12:48:44.556Z,15.67
2023-08-07T12:51:12.469Z,15.63
2023-08-07T12:53:41.824Z,15.64
2023-08-07T12:56:09.729Z,15.71
2023-08-07T12:58:37.984Z,15.75
2023-08-07T13:01:07.367Z,15.70
2023-08-07T13:03:35.442Z,15.61
2023-08-07T13:06:06.499Z,15.68
2023-08-07T13:08:35.924Z,15.54
2023-08-07T13:11:05.918Z,15.45
2023-08-07T13:13:33.881Z,15.43
2023-08-07T13:16:01.837Z,15.41
2023-08-07T13:18:29.811Z,15.37
2023-08-07T13:20:58.352Z,15.36
2023-08-07T13:23:26.231Z,15.31
2023-08-07T13:25:54.112Z,15.31
2023-08-07T13:28:23.466Z,15.41
2023-08-07T13:30:52.651Z,15.36
2023-08-07T13:33:21.244Z,15.34
2023-08-07T13:35:49.225Z,15.29
2023-08-07T13:38:19.685Z,15.15
2023-08-07T13:40:47.745Z,15.32
2023-08-07T13:43:15.826Z,15.32
2023-08-07T13:45:45.479Z,15.40
2023-08-07T13:48:15.165Z,15.44
2023-08-07T13:50:43.129Z,15.38
2023-08-07T13:53:15.158Z,15.32
2023-08-07T13:55:44.413Z,15.33
2023-08-07T13:58:12.755Z,15.40
2023-08-07T14:00:41.703Z,15.38
2023-08-07T14:03:13.720Z,15.43
2023-08-07T14:05:41.924Z,15.50
2023-08-07T14:08:11.730Z,15.50
2023-08-07T14:10:42.104Z,15.47
2023-08-07T14:13:12.483Z,15.44
2023-08-07T14:15:40.707Z,15.50
2023-08-07T14:18:08.618Z,15.63
2023-08-07T14:20:48.055Z,15.69
2023-08-07T14:23:24.423Z,15.63
2023-08-07T14:25:54.038Z,15.56
2023-08-07T14:28:22.033Z,15.53
2023-08-07T14:30:50.714Z,15.51
2023-08-07T14:33:19.159Z,15.53
2023-08-07T14:35:48.573Z,15.57
2023-08-07T14:38:16.519Z,15.60
2023-08-07T14:40:44.654Z,15.53
2023-08-07T14:43:12.693Z,15.50
2023-08-07T14:45:40.597Z,15.57
2023-08-07T14:48:08.696Z,15.64
2023-08-07T14:50:36.650Z,15.65
2023-08-07T14:53:06.114Z,15.68
2023-08-07T14:55:34.396Z,15.78
2023-08-07T14:58:02.605Z,15.84
2023-08-07T15:00:30.780Z,15.79
2023-08-07T15:02:59.900Z,15.75
2023-08-07T15:05:27.907Z,15.73
2023-08-07T15:07:55.783Z,15.72
2023-08-07T15:10:25.054Z,15.70
2023-08-07T15:12:52.988Z,15.64
2023-08-07T15:15:20.993Z,15.61
2023-08-07T15:17:48.960Z,15.59
2023-08-07T15:20:16.930Z,15.54
2023-08-07T15:22:44.817Z,15.51
2023-08-07T15:25:12.884Z,15.47
2023-08-07T15:27:42.149Z,15.48
2023-08-07T15:30:11.990Z,15.53
2023-08-07T15:32:41.983Z,15.54
2023-08-07T15:35:10.548Z,15.58
2023-08-07T15:37:38.656Z,15.50
2023-08-07T15:40:08.343Z,15.58
2023-08-07T15:42:36.218Z,15.63
2023-08-07T15:45:06.557Z,15.69
2023-08-07T15:47:34.523Z,15.64
2023-08-07T15:50:02.438Z,15.70
2023-08-07T15:52:30.344Z,15.75
2023-08-07T15:54:58.307Z,15.78
2023-08-07T15:57:26.766Z,15.78
2023-08-07T15:59:54.787Z,15.73
2023-08-07T16:02:24.215Z,15.72
2023-08-07T16:04:52.453Z,15.72
2023-08-07T16:07:20.884Z,15.72
2023-08-07T16:09:48.896Z,15.73
2023-08-07T16:12:18.891Z,15.73
2023-08-07T16:14:49.024Z,15.76
2023-08-07T16:17:17.223Z,15.80
2023-08-07T16:19:46.538Z,15.84
2023-08-07T16:22:14.544Z,15.80
2023-08-07T16:24:42.414Z,15.96
2023-08-07T16:27:10.375Z,16.07
2023-08-07T16:29:38.278Z,16.10
2023-08-07T16:32:07.731Z,16.25
2023-08-07T16:34:35.753Z,16.31
2023-08-07T16:37:05.659Z,16.32
2023-08-07T16:39:34.280Z,16.27
2023-08-07T16:42:02.265Z,16.20
2023-08-07T16:44:30.224Z,16.14
2023-08-07T16:46:58.376Z,15.93
2023-08-07T16:49:26.500Z,15.99
2023-08-07T16:51:59.235Z,15.94
2023-08-07T16:54:28.668Z,15.93
2023-08-07T16:56:57.086Z,15.89
2023-08-07T16:59:25.867Z,15.89
2023-08-07T17:01:53.759Z,15.94
2023-08-07T17:04:21.677Z,15.93
2023-08-07T17:06:49.601Z,15.90
2023-08-07T17:09:20.872Z,15.91
2023-08-07T17:11:50.215Z,15.87
2023-08-07T17:14:18.208Z,15.86
2023-08-07T17:16:46.088Z,15.82
2023-08-07T17:19:14.052Z,15.83
2023-08-07T17:21:41.972Z,15.84
2023-08-07T17:24:09.978Z,15.82
2023-08-07T17:26:37.865Z,15.82
2023-08-07T17:29:07.250Z,15.79
2023-08-07T17:31:35.249Z,15.79
2023-08-07T17:34:03.910Z,15.81
2023-08-07T17:36:32.030Z,15.77
2023-08-07T17:39:00.834Z,15.85
2023-08-07T17:41:30.781Z,15.86
2023-08-07T17:43:58.711Z,15.88
2023-08-07T17:46:28.277Z,15.88
2023-08-07T17:48:56.221Z,15.88
2023-08-07T17:51:24.342Z,15.86
2023-08-07T17:53:52.339Z,15.89
2023-08-07T17:56:22.846Z,15.84
2023-08-07T17:58:50.859Z,15.84
2023-08-07T18:01:19.316Z,15.79
2023-08-07T18:03:48.825Z,15.82
2023-08-07T18:06:16.775Z,15.72
2023-08-07T18:08:44.745Z,15.81
2023-08-07T18:11:12.765Z,15.80
2023-08-07T18:13:40.662Z,15.73
2023-08-07T18:16:08.510Z,15.78
2023-08-07T18:18:36.673Z,15.80
2023-08-07T18:21:05.942Z,15.79
2023-08-07T18:23:34.098Z,15.76
2023-08-07T18:26:02.058Z,15.73
2023-08-07T18:28:32.311Z,15.72
2023-08-07T18:31:00.609Z,15.72
2023-08-07T18:33:28.853Z,15.71
2023-08-07T18:36:00.794Z,15.70
2023-08-07T18:38:30.650Z,15.68
2023-08-07T18:40:58.628Z,15.65
2023-08-07T18:43:26.938Z,15.63
2023-08-07T18:45:54.852Z,15.62
2023-08-07T18:48:22.780Z,15.62
2023-08-07T18:50:50.750Z,15.63
2023-08-07T18:53:18.681Z,15.57
2023-08-07T18:55:47.967Z,15.61
2023-08-07T18:58:15.894Z,15.61
2023-08-07T19:00:43.842Z,15.61
2023-08-07T19:03:12.024Z,15.59
2023-08-07T19:05:40.037Z,15.61
2023-08-07T19:08:08.163Z,15.61
2023-08-07T19:10:36.224Z,15.62
2023-08-07T19:13:05.891Z,15.61
2023-08-07T19:15:33.835Z,15.61
2023-08-07T19:18:04.812Z,15.63
2023-08-07T19:20:32.935Z,15.62
2023-08-07T19:23:01.569Z,15.63
2023-08-07T19:25:29.530Z,15.62
2023-08-07T19:27:57.464Z,15.61
2023-08-07T19:30:27.275Z,15.63
2023-08-07T19:32:56.270Z,15.59
2023-08-07T19:35:24.344Z,15.62
2023-08-07T19:37:52.438Z,15.61
2023-08-07T19:40:25.330Z,15.61
2023-08-07T19:42:53.696Z,15.62
2023-08-07T19:45:22.289Z,15.62
2023-08-07T19:47:52.166Z,15.59
2023-08-07T19:50:20.387Z,15.65
2023-08-07T19:52:48.273Z,15.64
2023-08-07T19:55:18.057Z,15.64
2023-08-07T19:57:46.111Z,15.65
2023-08-07T20:00:15.433Z,15.66
2023-08-07T20:02:43.427Z,15.66
2023-08-07T20:05:12.711Z,15.66
2023-08-07T20:07:40.656Z,15.61
2023-08-07T20:10:11.032Z,15.57
2023-08-07T20:12:39.335Z,15.58
2023-08-07T20:15:08.213Z,15.54
2023-08-07T20:17:36.199Z,15.55
2023-08-07T20:20:04.312Z,15.54
2023-08-07T20:22:33.573Z,15.51
2023-08-07T20:25:01.438Z,15.50
2023-08-07T20:27:29.343Z,15.49
2023-08-07T20:29:57.241Z,15.47
2023-08-07T20:32:25.336Z,15.48
2023-08-07T20:34:53.298Z,15.45
2023-08-07T20:37:21.168Z,15.45
2023-08-07T20:39:50.401Z,15.44
2023-08-07T20:42:18.424Z,15.44
2023-08-07T20:44:46.374Z,15.44
2023-08-07T20:47:14.695Z,15.45
2023-08-07T20:49:42.620Z,15.44
2023-08-07T20:52:10.555Z,15.45
2023-08-07T20:54:38.530Z,15.43
2023-08-07T20:57:08.292Z,15.42
2023-08-07T20:59:36.181Z,15.38
2023-08-07T21:02:04.421Z,15.41
2023-08-07T21:04:32.443Z,15.38
2023-08-07T21:07:00.405Z,15.38
2023-08-07T21:09:28.373Z,15.36
2023-08-07T21:11:56.560Z,15.36
2023-08-07T21:14:26.202Z,15.33
2023-08-07T21:16:54.218Z,15.33
2023-08-07T21:19:22.332Z,15.33
2023-08-07T21:21:50.228Z,15.28
2023-08-07T21:24:18.238Z,15.29
2023-08-07T21:26:46.186Z,15.30
2023-08-07T21:29:14.099Z,15.29
2023-08-07T21:31:43.333Z,15.30
2023-08-07T21:34:11.300Z,15.31
2023-08-07T21:36:39.139Z,15.32
2023-08-07T21:39:07.544Z,15.31
2023-08-07T21:41:35.396Z,15.31
2023-08-07T21:44:03.262Z,15.31
2023-08-07T21:46:31.269Z,15.31
2023-08-07T21:49:00.808Z,15.31
2023-08-07T21:51:29.591Z,15.30
2023-08-07T21:53:57.549Z,15.29
2023-08-07T21:56:25.762Z,15.28
2023-08-07T21:58:53.681Z,15.27
2023-08-07T22:01:22.524Z,15.26
2023-08-07T22:03:50.700Z,15.23
2023-08-07T22:06:19.984Z,15.22
2023-08-07T22:08:48.040Z,15.18
2023-08-07T22:11:16.082Z,15.12
2023-08-07T22:13:45.985Z,15.17
2023-08-07T22:16:13.934Z,15.16
2023-08-07T22:18:42.044Z,15.16
2023-08-07T22:21:10.023Z,15.15
2023-08-07T22:23:39.271Z,15.16
2023-08-07T22:26:07.249Z,15.15
2023-08-07T22:28:35.161Z,15.12
2023-08-07T22:31:06.725Z,15.08
2023-08-07T22:33:36.387Z,15.05
2023-08-07T22:36:04.862Z,14.93
2023-08-07T22:38:32.962Z,14.98
2023-08-07T22:41:02.228Z,15.01
2023-08-07T22:43:30.163Z,15.00
2023-08-07T22:45:58.134Z,14.98
2023-08-07T22:48:26.075Z,14.95
2023-08-07T22:50:54.376Z,15.00
2023-08-07T22:53:22.262Z,14.98
2023-08-07T22:55:50.196Z,14.99
2023-08-07T22:58:19.384Z,15.02
2023-08-07T23:00:47.279Z,15.02
2023-08-07T23:03:15.325Z,15.02
2023-08-07T23:05:43.306Z,15.02
2023-08-07T23:08:11.476Z,15.07
2023-08-07T23:10:39.472Z,15.10
2023-08-07T23:13:07.320Z,15.10
2023-08-07T23:15:38.416Z,15.11
2023-08-07T23:18:06.969Z,15.12
2023-08-07T23:20:34.837Z,15.13
2023-08-07T23:23:02.796Z,15.15
2023-08-07T23:25:30.697Z,15.07
2023-08-07T23:27:58.573Z,15.07
2023-08-07T23:30:26.570Z,15.08
2023-08-07T23:32:55.889Z,15.05
2023-08-07T23:35:23.760Z,15.02
2023-08-07T23:37:51.743Z,15.00
2023-08-07T23:40:19.801Z,14.98
2023-08-07T23:42:48.184Z,14.96
2023-08-07T23:45:16.084Z,14.90
2023-08-07T23:47:44.089Z,14.86
2023-08-07T23:50:13.375Z,14.83
2023-08-07T23:52:44.740Z,14.82
2023-08-07T23:55:12.966Z,14.78
2023-08-07T23:57:40.896Z,14.86
